Portada
METAR-TAF:

METAR-TAF

Aeroports :

Miri, Malàisia

latitud: 04-20N, longitud: 113-59E, altitud: 17 m

Observació

L'informe es va fer fa 41 minuts, a les 07:00 UTC
Vent 5 kt del Nord/Nord-Oest, variant entre Oest/Sud-Oest i Nord/Nord-Est
Temperatura 31°C
Humitat 71%
Pressió 1009 hPa
Visibilitat 10 km o més
Escasses núvols a una alçada de 1500 ft, Cumulonimbus.
Núvols disperses a una alçada de 1600 ft

METAR: WBGR 220700Z 33005KT 250V020 9999 FEW015CB SCT016 31/25 Q1009

Hora: 15:41 (07:41 UTC)

Pronòstic

L'informe es va fer fa 2 hores i 41 minuts, a les 05:00 UTC
Pronòstic vàlid del 22 a les 06 UTC al 23 a les 06 UTC
Vent 6 kt del Nord-Oest
Visibilitat 10 km o més
Escasses núvols a una alçada de 1600 ft

TAF: WBGR 220500Z 2206/2306 31006KT 9999 FEW016

Observacions i pronòstics meteorològics de més de 4000 aeroports (METAR i TAF).

Les estacions disponibles són els punts grocs i vermells al mapa.

Posi el ratolí al punt desitjat per veure el nom de l'estació.

Feu clic per veure les observacions i els pronòstics meteorològics.

Per canviar el mapa: feu clic els botons verds amb una creu de color negre per apropar; al botó verd amb un guió per allunyar la imatge; o en les fletxes verdes per a mapes adjacents.


METAR-TAF: